Oviedo, Spain
Current Conditions -  °F | °C
As of 11:30 PM on Friday 21 Nov 2014 (Local Time) from LEAS Reporting Station
Light Rain Light Rain  
Wind Chill: 61°   Ceiling: Unl
Heat Index: 61°   Visibility: 6mi
Dew Point: 55°   Wind: 5mph
Humidity: 82%   Direction: 240°WSW
Pressure: 29.88"   Gusts: NA
Location:  43.36°N, 5.84°W
Report Text: LEAS 212230Z 24004KT 9999 -RA FEW075 SCT080 16/13 Q1012 NOSIG
Loading
Personal Weather Stations






























Interactive Weather Map New forecast layout! Learn more

10-Day Weather Forecast

Advertisements
Track Severe Weather on mobile